Time;durP1;ratioP1;P1;durP2;ratioP2;P2;SDS_P1;SDS_P2;PMS_P1;PMS_P2;Temp;Humidity;BMP_temperature;BMP_pressure;BME280_temperature;BME280_humidity;BME280_pressure;Samples;Min_cycle;Max_cycle;Signal;HPM_P1;HPM_P2
2021/12/25 00:01:23;;;;;;;2.00;0.80;;;12.10;72.80;;;;;;5073859;28;20020;-68
2021/12/25 00:03:51;;;;;;;2.05;1.20;;;12.10;73.20;;;;;;5074201;28;20025;-70
2021/12/25 00:06:17;;;;;;;1.08;0.60;;;12.10;72.90;;;;;;5073053;28;20437;-76
2021/12/25 00:08:43;;;;;;;0.63;0.55;;;12.10;73.20;;;;;;5104729;28;20037;-67
2021/12/25 00:11:10;;;;;;;1.60;0.77;;;12.10;73.60;;;;;;5071808;28;20059;-70
2021/12/25 00:13:37;;;;;;;1.50;0.70;;;12.10;73.60;;;;;;5073420;28;20129;-66
2021/12/25 00:16:03;;;;;;;2.20;0.70;;;12.00;73.80;;;;;;5073251;28;20113;-66
2021/12/25 00:18:29;;;;;;;0.65;0.60;;;12.00;73.80;;;;;;5070993;28;20082;-68
2021/12/25 00:20:55;;;;;;;1.10;0.60;;;12.10;73.80;;;;;;5072492;28;20055;-69
2021/12/25 00:23:22;;;;;;;1.40;0.60;;;12.10;73.60;;;;;;5068999;28;20568;-68
2021/12/25 00:25:55;;;;;;;1.40;0.60;;;12.10;73.50;;;;;;5087292;28;20033;-68
2021/12/25 00:31:06;;;;;;;3.42;0.73;;;11.90;74.30;;;;;;5073124;28;20064;-64
2021/12/25 00:36:00;;;;;;;2.25;0.70;;;11.90;75.10;;;;;;5093427;28;20060;-68
2021/12/25 00:38:25;;;;;;;1.80;0.70;;;11.90;75.20;;;;;;5073656;28;20087;-62
2021/12/25 00:40:51;;;;;;;1.77;0.80;;;12.00;75.20;;;;;;5071113;28;20411;-70
2021/12/25 00:43:17;;;;;;;1.70;0.90;;;11.90;75.20;;;;;;5074136;28;20472;-71
2021/12/25 00:45:43;;;;;;;2.20;0.85;;;12.00;75.40;;;;;;5074540;28;20448;-72
2021/12/25 00:48:09;;;;;;;1.60;0.90;;;12.00;75.40;;;;;;5072896;28;20028;-73
2021/12/25 00:50:34;;;;;;;1.27;0.80;;;12.00;75.50;;;;;;5073630;28;20029;-68
2021/12/25 00:53:00;;;;;;;4.85;1.60;;;11.90;75.50;;;;;;5072890;28;20366;-71
2021/12/25 00:55:26;;;;;;;1.90;0.80;;;12.00;75.60;;;;;;5087086;28;20517;-73
2021/12/25 00:57:52;;;;;;;1.80;0.85;;;12.00;75.40;;;;;;5070548;28;20453;-66
2021/12/25 01:00:18;;;;;;;1.52;0.82;;;12.00;75.40;;;;;;5073724;28;20028;-74
2021/12/25 01:02:46;;;;;;;3.65;1.00;;;12.00;75.40;;;;;;5073069;28;20024;-68
2021/12/25 01:05:13;;;;;;;1.50;0.95;;;12.00;75.40;;;;;;5073335;28;20070;-70
2021/12/25 01:07:39;;;;;;;1.77;0.80;;;12.00;75.30;;;;;;5071952;28;20552;-75
2021/12/25 01:10:08;;;;;;;1.48;0.82;;;12.00;75.30;;;;;;5071601;28;20079;-65
2021/12/25 01:12:52;;;;;;;1.13;0.80;;;12.00;75.30;;;;;;5071901;28;20545;-65
2021/12/25 01:15:23;;;;;;;;;;;12.00;75.20;;;;;;5082033;28;20361;-65
2021/12/25 01:49:35;;;;;;;2.95;1.02;;;12.00;76.90;;;;;;5071067;28;20145;-62
2021/12/25 01:52:02;;;;;;;1.65;1.10;;;12.00;77.10;;;;;;5071151;28;20032;-63
2021/12/25 01:54:28;;;;;;;2.78;0.80;;;12.00;77.30;;;;;;5069810;28;20397;-64
2021/12/25 01:56:54;;;;;;;3.53;1.10;;;11.90;77.30;;;;;;5069595;28;20028;-60
2021/12/25 01:59:20;;;;;;;1.42;0.88;;;11.90;77.40;;;;;;5068997;28;20032;-60
2021/12/25 02:01:46;;;;;;;1.40;1.08;;;12.00;77.60;;;;;;5070600;28;20119;-61
2021/12/25 02:04:12;;;;;;;2.50;1.77;;;12.00;77.50;;;;;;5070750;28;20021;-61
2021/12/25 02:06:38;;;;;;;5.45;2.38;;;12.00;77.40;;;;;;5068572;28;20488;-60
2021/12/25 02:09:05;;;;;;;4.10;1.90;;;12.10;77.40;;;;;;5070380;28;20039;-61
2021/12/25 02:11:31;;;;;;;2.08;1.40;;;12.00;77.30;;;;;;5069622;28;20476;-60
2021/12/25 02:13:58;;;;;;;4.90;1.77;;;12.00;77.30;;;;;;5070246;28;20024;-60
2021/12/25 02:16:29;;;;;;;2.53;1.70;;;12.00;77.30;;;;;;5068594;28;20473;-61
2021/12/25 02:21:31;;;;;;;2.50;1.42;;;12.00;77.30;;;;;;5069876;28;20081;-61
2021/12/25 02:24:01;;;;;;;2.58;1.40;;;12.00;77.40;;;;;;5069726;28;20039;-60
2021/12/25 02:26:27;;;;;;;2.67;1.77;;;12.00;77.60;;;;;;5068826;28;20404;-60
2021/12/25 02:28:53;;;;;;;2.42;1.25;;;12.00;77.80;;;;;;5071290;28;20025;-60
2021/12/25 02:31:20;;;;;;;3.08;1.63;;;12.00;78.00;;;;;;5069025;28;20028;-62
2021/12/25 02:33:46;;;;;;;3.13;1.70;;;11.90;78.10;;;;;;5071490;28;20513;-60
2021/12/25 02:36:13;;;;;;;2.83;1.48;;;12.00;78.20;;;;;;5070378;28;20047;-61
2021/12/25 02:38:39;;;;;;;3.67;1.38;;;12.00;78.10;;;;;;5069447;28;20053;-60
2021/12/25 02:41:06;;;;;;;2.28;1.20;;;12.00;77.90;;;;;;5071314;28;20032;-62
2021/12/25 02:43:32;;;;;;;2.17;1.17;;;11.90;77.80;;;;;;5071345;28;20036;-60
2021/12/25 02:46:03;;;;;;;2.20;1.20;;;12.00;77.80;;;;;;5071369;28;20078;-60
2021/12/25 02:48:36;;;;;;;1.58;1.17;;;12.00;77.70;;;;;;5068347;28;20033;-60
2021/12/25 02:51:02;;;;;;;1.73;1.13;;;12.00;77.60;;;;;;5070799;28;20028;-60
2021/12/25 02:53:28;;;;;;;2.35;1.20;;;11.90;77.50;;;;;;5069800;28;20036;-60
2021/12/25 02:55:54;;;;;;;2.83;0.95;;;12.00;77.60;;;;;;5071396;28;20027;-60
2021/12/25 02:58:20;;;;;;;1.45;0.93;;;12.00;77.50;;;;;;5071412;28;20089;-60
2021/12/25 03:00:56;;;;;;;1.73;1.10;;;12.00;78.10;;;;;;5072029;28;20041;-62
2021/12/25 03:03:41;;;;;;;1.90;1.00;;;12.00;77.40;;;;;;5070721;28;20473;-60
2021/12/25 03:06:09;;;;;;;1.48;1.00;;;12.00;77.40;;;;;;5051268;28;20021;-60
2021/12/25 03:08:35;;;;;;;2.63;1.30;;;12.00;77.40;;;;;;5062947;28;20033;-60
2021/12/25 03:11:03;;;;;;;2.10;1.20;;;12.00;77.40;;;;;;5071365;28;20057;-60
2021/12/25 03:13:32;;;;;;;2.25;1.13;;;12.00;77.30;;;;;;5069354;28;20376;-60
2021/12/25 03:16:00;;;;;;;2.30;1.10;;;12.00;77.30;;;;;;5071566;28;20021;-60
2021/12/25 03:18:29;;;;;;;4.18;1.23;;;12.00;77.30;;;;;;5070658;28;20036;-61
2021/12/25 03:20:58;;;;;;;2.05;1.30;;;12.00;77.20;;;;;;5071516;28;20125;-60
2021/12/25 03:23:43;;;;;;;2.50;1.27;;;12.10;77.20;;;;;;5070241;28;20381;-60
2021/12/25 03:26:10;;;;;;;2.72;1.50;;;12.10;77.20;;;;;;5071141;28;20036;-60
2021/12/25 03:28:41;;;;;;;2.83;1.20;;;12.10;77.20;;;;;;5068695;28;20150;-60
2021/12/25 03:31:15;;;;;;;1.85;1.10;;;12.00;77.40;;;;;;5053409;28;20035;-60
2021/12/25 03:33:41;;;;;;;3.67;1.40;;;12.00;77.60;;;;;;5061329;28;20385;-60
2021/12/25 03:36:07;;;;;;;2.80;1.20;;;11.90;77.80;;;;;;5075187;28;20059;-61
2021/12/25 03:38:33;;;;;;;2.72;1.50;;;11.90;77.80;;;;;;5074436;28;20060;-60
2021/12/25 03:41:00;;;;;;;1.63;1.10;;;12.00;77.90;;;;;;5090900;28;20037;-61
2021/12/25 03:43:26;;;;;;;2.08;1.30;;;12.00;78.00;;;;;;5074266;28;20028;-61
2021/12/25 03:45:53;;;;;;;3.50;1.65;;;12.00;78.10;;;;;;5075254;28;20048;-61
2021/12/25 03:57:37;;;;;;;2.67;1.65;;;12.00;78.40;;;;;;5074588;28;20226;-61
2021/12/25 03:59:12;;;;;;;3.55;1.50;;;12.00;78.60;;;;;;5064955;28;20035;-60
2021/12/25 04:04:15;;;;;;;1.70;1.40;;;12.10;78.50;;;;;;5075059;28;20533;-59
2021/12/25 04:06:50;;;;;;;2.67;1.48;;;12.10;78.50;;;;;;5076255;28;20027;-59
2021/12/25 04:12:11;;;;;;;3.03;1.45;;;12.10;78.50;;;;;;5074327;28;20452;-59
2021/12/25 04:14:38;;;;;;;3.20;1.55;;;12.20;78.30;;;;;;5072270;28;20033;-59
2021/12/25 04:17:03;;;;;;;2.45;1.30;;;12.20;78.20;;;;;;5074752;28;20024;-60
2021/12/25 04:19:29;;;;;;;2.95;1.42;;;12.20;78.10;;;;;;5072865;28;20031;-60
2021/12/25 04:24:26;;;;;;;2.40;1.27;;;12.20;78.00;;;;;;5073269;28;20021;-61
2021/12/25 04:26:52;;;;;;;1.83;1.08;;;12.20;78.00;;;;;;5062328;28;20044;-60
2021/12/25 05:04:27;;;;;;;1.02;0.70;;;12.10;77.80;;;;;;5073737;28;20020;-59
2021/12/25 05:06:53;;;;;;;2.92;1.10;;;12.10;77.90;;;;;;5068753;28;20032;-60
2021/12/25 05:09:19;;;;;;;2.20;1.17;;;12.10;77.90;;;;;;5073088;28;20169;-60
2021/12/25 05:11:45;;;;;;;1.48;1.02;;;12.10;77.90;;;;;;5072437;28;20045;-60
2021/12/25 05:14:11;;;;;;;1.73;1.00;;;12.10;78.10;;;;;;5073297;28;20047;-61
2021/12/25 05:16:55;;;;;;;4.32;1.20;;;12.10;78.10;;;;;;5072419;28;20028;-60
2021/12/25 05:19:21;;;;;;;1.45;0.90;;;12.10;78.00;;;;;;5071676;28;20036;-60
2021/12/25 05:21:47;;;;;;;1.67;1.27;;;12.20;78.00;;;;;;5071774;28;20129;-59
2021/12/25 05:24:13;;;;;;;2.00;1.10;;;12.20;78.00;;;;;;5072887;28;20489;-59
2021/12/25 05:26:39;;;;;;;2.05;1.60;;;12.10;77.90;;;;;;5069718;28;20111;-60
2021/12/25 05:29:06;;;;;;;1.63;1.25;;;12.20;78.10;;;;;;5071856;28;20048;-60
2021/12/25 05:31:34;;;;;;;2.20;1.30;;;12.10;78.10;;;;;;5086005;28;20033;-61
2021/12/25 05:34:00;;;;;;;1.98;1.30;;;12.10;78.20;;;;;;5071247;28;20469;-60
2021/12/25 05:36:27;;;;;;;1.63;1.30;;;12.10;78.20;;;;;;5071771;28;20028;-60
2021/12/25 05:38:58;;;;;;;1.90;1.25;;;12.10;78.20;;;;;;5068422;28;20028;-60
2021/12/25 05:41:30;;;;;;;2.20;1.50;;;12.10;78.20;;;;;;5071403;28;20035;-60
2021/12/25 05:43:56;;;;;;;2.78;1.58;;;12.10;78.40;;;;;;5071477;28;20180;-60
2021/12/25 05:46:22;;;;;;;2.17;1.50;;;12.20;78.60;;;;;;5087953;28;20035;-60
2021/12/25 05:48:50;;;;;;;2.95;1.58;;;12.20;78.50;;;;;;5069276;28;20430;-59
2021/12/25 05:51:16;;;;;;;5.80;2.58;;;12.20;78.50;;;;;;5068995;28;20078;-61
2021/12/25 05:53:42;;;;;;;3.40;1.80;;;12.20;78.40;;;;;;5069714;28;20094;-60
2021/12/25 05:56:08;;;;;;;4.15;1.88;;;12.20;78.50;;;;;;5069921;28;20028;-61
2021/12/25 05:58:34;;;;;;;2.78;1.55;;;12.20;78.60;;;;;;5068957;28;20373;-60
2021/12/25 06:00:59;;;;;;;2.10;1.63;;;12.20;78.50;;;;;;5070631;28;20032;-60
2021/12/25 06:03:25;;;;;;;2.75;1.98;;;12.20;78.70;;;;;;5070216;28;20381;-60
2021/12/25 06:05:51;;;;;;;3.15;1.90;;;12.20;78.80;;;;;;5070564;28;20071;-59
2021/12/25 06:08:17;;;;;;;3.55;1.80;;;12.20;78.70;;;;;;5070031;28;20029;-60
2021/12/25 06:10:43;;;;;;;3.97;1.90;;;12.20;78.80;;;;;;5070507;28;20080;-60
2021/12/25 06:13:14;;;;;;;2.38;1.83;;;12.20;78.80;;;;;;5067451;28;20349;-60
2021/12/25 06:15:40;;;;;;;3.15;2.00;;;12.20;78.80;;;;;;5070675;28;20029;-61
2021/12/25 06:18:11;;;;;;;2.30;1.83;;;12.20;78.80;;;;;;5049912;28;20036;-61
2021/12/25 06:20:38;;;;;;;3.00;2.10;;;12.20;78.90;;;;;;5067995;28;20028;-61
2021/12/25 06:23:03;;;;;;;3.10;2.25;;;12.20;78.90;;;;;;5070724;28;20059;-60
2021/12/25 06:25:30;;;;;;;3.72;2.80;;;12.10;78.90;;;;;;5070261;28;20060;-60
2021/12/25 06:27:56;;;;;;;4.60;2.95;;;12.10;79.00;;;;;;5069447;28;20385;-61
2021/12/25 06:30:22;;;;;;;7.28;4.15;;;12.00;79.30;;;;;;5070659;28;20036;-60
2021/12/25 06:32:47;;;;;;;4.57;3.97;;;11.90;79.20;;;;;;5069255;28;20182;-61
2021/12/25 06:35:14;;;;;;;6.28;4.93;;;11.70;79.40;;;;;;5069991;28;20028;-60
2021/12/25 06:37:45;;;;;;;5.80;5.05;;;11.70;79.60;;;;;;5070338;28;20384;-60
2021/12/25 06:40:18;;;;;;;5.88;4.82;;;11.60;79.60;;;;;;5068835;28;20533;-59
2021/12/25 06:42:45;;;;;;;8.85;4.90;;;11.30;79.20;;;;;;5059508;28;20078;-60
2021/12/25 06:45:11;;;;;;;6.13;4.47;;;11.20;78.70;;;;;;5068439;28;20354;-59
2021/12/25 06:47:37;;;;;;;6.97;4.63;;;11.20;78.90;;;;;;5068230;28;20123;-60
2021/12/25 06:50:07;;;;;;;5.82;4.78;;;11.00;77.20;;;;;;5068621;28;20115;-59
2021/12/25 06:52:33;;;;;;;6.68;4.75;;;10.80;77.20;;;;;;5068055;28;20119;-59
2021/12/25 06:54:59;;;;;;;8.32;4.32;;;10.80;77.20;;;;;;5068721;28;20028;-59
2021/12/25 06:57:25;;;;;;;7.03;4.80;;;10.90;77.10;;;;;;5068733;28;20146;-59
2021/12/25 06:59:50;;;;;;;7.10;4.53;;;10.80;75.80;;;;;;5067919;28;20295;-59
2021/12/25 07:02:16;;;;;;;9.10;5.18;;;10.70;76.20;;;;;;5069651;28;20043;-59
2021/12/25 07:04:42;;;;;;;7.13;5.05;;;10.80;76.20;;;;;;5067470;28;20074;-62
2021/12/25 07:07:07;;;;;;;7.05;5.05;;;10.70;75.80;;;;;;5067444;28;20526;-59
2021/12/25 07:09:33;;;;;;;8.73;5.22;;;10.70;75.50;;;;;;5068285;28;20040;-60
2021/12/25 07:11:59;;;;;;;5.75;4.90;;;10.50;75.60;;;;;;5065400;28;20472;-59
2021/12/25 07:14:24;;;;;;;7.78;5.40;;;10.40;75.90;;;;;;5068247;28;20034;-60
2021/12/25 07:16:50;;;;;;;7.18;5.43;;;10.30;75.00;;;;;;5069065;28;20035;-59
2021/12/25 07:19:16;;;;;;;8.57;4.85;;;9.90;75.70;;;;;;5070082;28;20453;-58
2021/12/25 07:21:43;;;;;;;8.95;5.03;;;9.90;75.50;;;;;;5067631;28;20033;-59
2021/12/25 07:24:09;;;;;;;9.15;5.47;;;9.90;75.50;;;;;;5067624;28;20048;-59
2021/12/25 07:26:36;;;;;;;7.40;5.10;;;9.90;75.90;;;;;;5050258;28;20032;-59
2021/12/25 07:29:02;;;;;;;7.85;4.75;;;9.90;75.30;;;;;;5069749;28;20032;-58
2021/12/25 07:31:28;;;;;;;8.10;5.30;;;10.00;75.90;;;;;;5076230;28;20044;-60
2021/12/25 07:33:54;;;;;;;6.97;5.32;;;10.10;75.70;;;;;;5068789;28;20040;-60
2021/12/25 07:36:20;;;;;;;8.40;4.93;;;10.20;75.00;;;;;;5069310;28;20055;-61
2021/12/25 07:38:46;;;;;;;8.02;4.95;;;10.20;74.70;;;;;;5067811;28;20484;-60
2021/12/25 07:41:12;;;;;;;7.70;5.22;;;10.10;74.20;;;;;;5067722;28;20408;-59
2021/12/25 07:43:38;;;;;;;6.50;5.00;;;9.90;74.20;;;;;;5067764;28;20050;-60
2021/12/25 07:46:04;;;;;;;9.80;5.57;;;9.90;74.70;;;;;;5063679;28;20021;-59
2021/12/25 07:48:33;;;;;;;7.00;5.20;;;9.90;74.10;;;;;;5067884;28;20412;-59
2021/12/25 07:50:58;;;;;;;6.65;5.57;;;9.90;74.20;;;;;;5067709;28;20033;-60
2021/12/25 07:53:24;;;;;;;6.97;5.60;;;10.00;73.80;;;;;;5068870;28;20115;-60
2021/12/25 07:55:50;;;;;;;9.25;6.70;;;9.90;73.90;;;;;;5084266;28;20690;-61
2021/12/25 07:58:17;;;;;;;8.68;5.50;;;9.90;73.50;;;;;;5068063;28;20690;-61
2021/12/25 08:00:44;;;;;;;8.93;5.90;;;10.00;73.40;;;;;;5069411;28;20029;-61
2021/12/25 08:03:11;;;;;;;7.28;6.03;;;9.90;73.00;;;;;;5068037;28;20112;-60
2021/12/25 08:05:37;;;;;;;7.82;6.30;;;9.90;72.90;;;;;;5066933;28;20330;-61
2021/12/25 08:08:04;;;;;;;8.10;6.70;;;9.90;72.30;;;;;;5067792;28;20087;-59
2021/12/25 08:10:31;;;;;;;8.63;7.20;;;9.90;72.30;;;;;;5065088;28;20041;-61
2021/12/25 08:12:58;;;;;;;9.50;6.40;;;9.90;72.40;;;;;;5069049;28;20016;-61
2021/12/25 08:15:27;;;;;;;9.15;6.68;;;9.90;71.80;;;;;;5068563;28;20047;-61
2021/12/25 08:17:54;;;;;;;8.07;6.78;;;9.80;72.00;;;;;;5069352;28;20032;-61
2021/12/25 08:20:20;;;;;;;9.60;7.45;;;9.60;71.50;;;;;;5058634;28;20037;-60
2021/12/25 08:22:47;;;;;;;10.00;7.28;;;9.60;72.40;;;;;;5072616;28;20028;-60
2021/12/25 08:25:15;;;;;;;8.65;7.30;;;9.60;71.80;;;;;;5070754;28;20040;-60
2021/12/25 08:27:42;;;;;;;9.57;7.50;;;9.70;72.00;;;;;;5055697;28;20116;-60
2021/12/25 08:30:12;;;;;;;9.68;7.30;;;9.70;71.90;;;;;;5072413;28;20206;-60
2021/12/25 08:32:39;;;;;;;8.98;7.28;;;9.60;71.40;;;;;;5071754;28;20441;-60
2021/12/25 08:35:06;;;;;;;10.80;7.57;;;9.50;71.50;;;;;;5072272;28;20040;-61
2021/12/25 08:37:32;;;;;;;7.70;6.82;;;9.50;72.00;;;;;;5071693;28;20033;-62
2021/12/25 08:39:58;;;;;;;10.10;7.53;;;9.60;72.20;;;;;;5069911;28;20048;-61
2021/12/25 08:42:25;;;;;;;11.27;7.72;;;9.60;71.60;;;;;;5087562;28;20020;-61
2021/12/25 08:47:21;;;;;;;10.48;7.47;;;9.60;71.90;;;;;;5072248;28;20461;-62
2021/12/25 08:49:47;;;;;;;9.93;7.72;;;9.50;71.70;;;;;;5070927;28;20036;-66
2021/12/25 08:52:16;;;;;;;9.40;7.82;;;9.50;71.80;;;;;;5070947;28;20060;-66
2021/12/25 08:54:43;;;;;;;10.43;7.93;;;9.50;71.50;;;;;;5072302;28;20021;-60
2021/12/25 08:57:10;;;;;;;10.38;8.02;;;9.30;71.90;;;;;;5072901;28;20106;-71
2021/12/25 08:59:37;;;;;;;12.55;8.38;;;9.20;72.40;;;;;;5072340;28;20499;-66
2021/12/25 09:02:06;;;;;;;10.13;8.38;;;9.20;72.70;;;;;;5070387;28;20032;-60
2021/12/25 09:04:32;;;;;;;13.55;10.07;;;9.20;72.70;;;;;;5068676;28;20469;-66
2021/12/25 09:06:58;;;;;;;11.82;9.60;;;9.20;73.00;;;;;;5064722;28;20032;-68
2021/12/25 09:09:27;;;;;;;10.27;8.32;;;9.30;73.20;;;;;;5070758;28;20028;-69
2021/12/25 09:11:53;;;;;;;10.25;8.32;;;9.20;72.80;;;;;;5072297;28;20040;-65
2021/12/25 09:14:19;;;;;;;11.93;9.25;;;9.20;73.20;;;;;;5071783;28;20020;-68
2021/12/25 09:16:45;;;;;;;11.82;9.23;;;9.10;72.60;;;;;;5071589;28;20033;-67
2021/12/25 09:19:10;;;;;;;11.65;8.80;;;9.10;72.50;;;;;;5073044;28;20051;-67
2021/12/25 09:21:36;;;;;;;13.88;9.88;;;8.80;72.70;;;;;;5076295;28;20032;-66
2021/12/25 09:24:02;;;;;;;13.57;10.23;;;8.80;73.90;;;;;;5078419;28;20096;-67
2021/12/25 09:26:28;;;;;;;12.75;9.63;;;8.80;73.70;;;;;;5071895;28;20048;-67
2021/12/25 09:28:54;;;;;;;16.70;9.88;;;8.90;73.90;;;;;;5071232;28;20075;-67
2021/12/25 09:31:21;;;;;;;12.15;9.68;;;8.90;74.40;;;;;;5071716;28;20036;-69
2021/12/25 09:33:46;;;;;;;10.52;8.82;;;8.90;74.50;;;;;;5071972;28;20025;-67
2021/12/25 09:36:12;;;;;;;8.23;7.03;;;8.80;73.00;;;;;;5072623;28;20452;-69
2021/12/25 09:38:38;;;;;;;6.60;5.88;;;8.60;72.20;;;;;;5069258;28;20031;-67
2021/12/25 09:41:05;;;;;;;8.68;6.82;;;8.60;72.30;;;;;;5070723;28;20029;-68
2021/12/25 09:43:31;;;;;;;7.82;6.80;;;8.50;72.00;;;;;;5071211;28;20037;-67
2021/12/25 09:45:58;;;;;;;11.57;6.57;;;8.60;72.10;;;;;;5070929;28;20133;-63
2021/12/25 09:48:23;;;;;;;10.82;6.88;;;8.50;72.10;;;;;;5071083;28;20020;-62
2021/12/25 09:50:50;;;;;;;9.23;6.70;;;8.60;72.00;;;;;;5072408;28;20037;-63
2021/12/25 09:53:18;;;;;;;7.68;6.47;;;8.70;72.40;;;;;;5071483;28;20062;-64
2021/12/25 09:55:44;;;;;;;7.60;5.75;;;8.70;71.20;;;;;;5052839;28;20118;-68
2021/12/25 09:58:10;;;;;;;12.15;9.18;;;8.30;70.30;;;;;;5070631;28;20106;-65
2021/12/25 10:00:41;;;;;;;11.00;7.95;;;8.30;71.60;;;;;;5070989;28;20098;-65
2021/12/25 10:03:06;;;;;;;10.07;6.68;;;8.30;70.60;;;;;;5069766;28;20032;-68
2021/12/25 10:05:41;;;;;;;7.38;5.80;;;8.30;70.90;;;;;;5070304;28;20550;-67
2021/12/25 10:08:11;;;;;;;8.35;5.78;;;8.30;71.00;;;;;;5067126;28;20441;-66
2021/12/25 10:10:46;;;;;;;5.82;5.15;;;8.30;70.60;;;;;;5084563;28;20102;-66
2021/12/25 10:13:37;;;;;;;8.05;5.68;;;8.00;71.00;;;;;;5071138;28;20039;-66
2021/12/25 10:16:27;;;;;;;9.02;5.60;;;7.90;71.40;;;;;;5061998;28;20045;-67
2021/12/25 10:19:11;;;;;;;8.10;6.47;;;7.90;72.30;;;;;;5051322;28;20029;-66
2021/12/25 10:21:37;;;;;;;;;;;7.90;73.00;;;;;;5061548;28;20036;-65
2021/12/25 10:24:13;;;;;;;8.50;6.18;;;7.90;73.20;;;;;;5069944;28;19909;-66
2021/12/25 10:26:41;;;;;;;9.32;6.50;;;8.10;73.30;;;;;;5070540;28;20029;-65
2021/12/25 10:29:22;;;;;;;10.95;8.00;;;8.20;72.40;;;;;;5086888;28;20050;-65
2021/12/25 10:31:54;;;;;;;7.50;5.45;;;8.20;72.20;;;;;;5069132;28;20036;-65
2021/12/25 10:34:28;;;;;;;7.47;6.10;;;8.00;71.70;;;;;;5070632;28;20065;-68
2021/12/25 10:37:04;;;;;;;20.77;16.00;;;8.00;72.40;;;;;;5071343;28;20070;-65
2021/12/25 10:39:30;;;;;;;9.60;7.13;;;7.90;72.50;;;;;;5069440;28;20032;-65
2021/12/25 10:42:07;;;;;;;8.77;6.82;;;7.90;72.60;;;;;;5074153;28;20065;-66
2021/12/25 10:44:36;;;;;;;9.27;6.18;;;7.90;72.90;;;;;;5054995;28;20028;-67
2021/12/25 10:47:05;;;;;;;8.70;6.95;;;8.10;73.10;;;;;;5070650;28;20029;-65
2021/12/25 10:49:41;;;;;;;8.98;6.20;;;8.10;72.70;;;;;;5070309;28;20062;-68
2021/12/25 10:52:22;;;;;;;9.07;5.97;;;7.90;72.60;;;;;;5068773;28;20039;-66
2021/12/25 10:54:53;;;;;;;8.27;6.00;;;7.90;72.80;;;;;;5070730;28;20031;-66
2021/12/25 10:57:40;;;;;;;7.70;6.47;;;7.90;72.20;;;;;;5067266;28;20032;-65
2021/12/25 11:00:09;;;;;;;7.95;6.47;;;7.90;71.80;;;;;;5082731;28;20048;-67
2021/12/25 11:02:39;;;;;;;8.23;6.40;;;7.80;72.50;;;;;;5069708;28;20056;-69
2021/12/25 11:05:24;;;;;;;7.40;6.53;;;7.70;73.00;;;;;;5069903;28;20099;-67
2021/12/25 11:08:21;;;;;;;35.95;21.73;;;7.90;72.70;;;;;;5068576;28;20036;-66
2021/12/25 11:10:58;;;;;;;103.38;61.38;;;7.80;72.10;;;;;;5060328;28;20511;-66
2021/12/25 11:13:24;;;;;;;15.95;11.10;;;7.80;71.30;;;;;;5070117;28;20029;-67
2021/12/25 11:15:56;;;;;;;18.23;12.75;;;7.50;70.70;;;;;;5080675;28;20040;-68
2021/12/25 11:18:22;;;;;;;18.90;14.93;;;7.40;71.30;;;;;;5089373;28;20107;-72
2021/12/25 11:20:48;;;;;;;9.88;7.32;;;7.60;72.10;;;;;;5090831;28;20057;-66
2021/12/25 11:23:15;;;;;;;14.63;11.27;;;7.60;71.70;;;;;;5089663;28;20107;-67
2021/12/25 11:25:43;;;;;;;9.55;7.53;;;7.50;70.60;;;;;;5089942;28;20032;-69
2021/12/25 11:28:11;;;;;;;9.98;7.88;;;7.40;71.60;;;;;;5085880;28;20505;-67
2021/12/25 11:30:45;;;;;;;14.18;9.73;;;7.40;71.50;;;;;;5069595;28;20037;-68
2021/12/25 11:33:11;;;;;;;8.73;7.07;;;7.40;72.20;;;;;;5068578;28;20029;-68
2021/12/25 11:35:38;;;;;;;8.23;6.60;;;7.50;71.90;;;;;;5089173;28;20028;-66
2021/12/25 11:38:06;;;;;;;9.85;7.78;;;7.40;72.60;;;;;;5090090;28;20123;-67
2021/12/25 11:40:35;;;;;;;8.00;6.93;;;7.40;72.60;;;;;;5089367;28;20032;-69
2021/12/25 11:43:04;;;;;;;9.15;6.80;;;7.40;71.70;;;;;;5068681;28;20112;-67
2021/12/25 11:45:37;;;;;;;8.63;7.25;;;7.20;72.40;;;;;;5052857;28;20120;-68
2021/12/25 11:48:14;;;;;;;9.48;7.32;;;7.20;73.20;;;;;;5083948;28;20127;-68
2021/12/25 11:50:43;;;;;;;8.77;7.35;;;7.00;73.00;;;;;;5067514;28;20054;-69
2021/12/25 11:54:05;;;;;;;10.40;8.02;;;7.00;73.60;;;;;;5065812;28;20493;-69
2021/12/25 11:56:44;;;;;;;11.32;8.68;;;7.20;73.70;;;;;;5092105;28;20040;-68
2021/12/25 11:59:14;;;;;;;11.07;7.28;;;7.30;72.90;;;;;;5073196;28;20020;-67
2021/12/25 12:01:44;;;;;;;10.40;7.18;;;7.30;71.70;;;;;;5087385;28;20044;-69
2021/12/25 12:04:09;;;;;;;9.02;7.75;;;7.20;72.50;;;;;;5088860;28;20396;-67
2021/12/25 12:06:44;;;;;;;10.07;8.65;;;7.20;72.60;;;;;;5072932;28;20461;-68
2021/12/25 12:09:11;;;;;;;12.55;8.57;;;7.30;72.70;;;;;;5072948;28;20031;-67
2021/12/25 12:11:40;;;;;;;10.30;8.32;;;7.20;72.50;;;;;;5072899;28;20048;-69
2021/12/25 12:14:11;;;;;;;12.82;8.68;;;7.20;72.50;;;;;;5073690;28;20043;-70
2021/12/25 12:16:40;;;;;;;10.38;8.15;;;7.20;72.50;;;;;;5070809;28;20119;-64
2021/12/25 12:19:37;;;;;;;12.60;8.60;;;7.20;72.70;;;;;;5073403;28;20032;-65
2021/12/25 12:22:20;;;;;;;10.85;8.00;;;7.10;72.70;;;;;;5069987;28;20028;-68
2021/12/25 12:25:22;;;;;;;9.40;7.65;;;7.10;72.60;;;;;;5072112;28;20031;-65
2021/12/25 12:27:53;;;;;;;11.50;9.00;;;7.10;72.80;;;;;;5064455;28;20052;-68
2021/12/25 12:30:30;;;;;;;9.32;7.93;;;7.20;72.50;;;;;;5062808;28;20041;-64
2021/12/25 12:33:19;;;;;;;10.52;7.88;;;7.20;71.70;;;;;;5070277;28;20036;-63
2021/12/25 12:35:54;;;;;;;8.98;7.53;;;7.30;71.70;;;;;;5051188;28;20048;-66
2021/12/25 12:38:26;;;;;;;9.30;8.07;;;7.10;70.90;;;;;;5062637;28;20067;-68
2021/12/25 12:41:23;;;;;;;11.30;9.10;;;6.80;71.60;;;;;;5069179;28;20119;-72
2021/12/25 12:44:12;;;;;;;10.82;8.07;;;6.90;72.10;;;;;;5065591;28;20069;-65
2021/12/25 12:46:50;;;;;;;14.38;9.75;;;6.80;71.40;;;;;;5062561;28;20045;-67
2021/12/25 12:49:22;;;;;;;13.27;9.00;;;6.70;71.10;;;;;;5065323;28;20025;-61
2021/12/25 12:52:08;;;;;;;10.48;7.82;;;6.70;71.50;;;;;;5065252;28;20056;-63
2021/12/25 12:54:55;;;;;;;9.00;6.90;;;6.80;71.30;;;;;;5058868;28;20036;-68
2021/12/25 12:57:39;;;;;;;9.80;8.15;;;6.70;69.90;;;;;;5077412;28;20037;-66
2021/12/25 13:00:18;;;;;;;;;;;6.60;71.10;;;;;;5062002;28;20029;-64
2021/12/25 13:02:50;;;;;;;10.60;8.20;;;6.60;71.60;;;;;;5070569;28;19919;-63
2021/12/25 13:05:33;;;;;;;12.48;10.23;;;6.50;71.70;;;;;;5065771;28;20042;-64
2021/12/25 13:08:08;;;;;;;12.75;9.32;;;6.40;72.30;;;;;;5066150;28;20470;-64
2021/12/25 13:10:39;;;;;;;10.50;8.90;;;6.40;72.70;;;;;;5064730;28;20131;-64
2021/12/25 13:13:30;;;;;;;10.38;8.38;;;6.40;73.10;;;;;;5082490;28;20121;-67
2021/12/25 13:16:09;;;;;;;11.45;8.80;;;6.60;73.70;;;;;;5061238;28;20056;-64
2021/12/25 13:18:38;;;;;;;12.52;9.45;;;6.30;72.80;;;;;;5069275;28;20024;-63
2021/12/25 13:21:15;;;;;;;13.25;9.70;;;6.40;73.80;;;;;;5088064;28;20089;-70
2021/12/25 13:23:53;;;;;;;12.07;9.25;;;6.50;74.60;;;;;;5069205;28;20412;-67
2021/12/25 13:26:21;;;;;;;22.90;13.75;;;6.60;73.70;;;;;;5070607;28;20034;-62
2021/12/25 13:28:50;;;;;;;13.52;9.82;;;6.40;70.60;;;;;;5069851;28;20017;-61
2021/12/25 13:31:20;;;;;;;9.43;7.60;;;6.30;69.90;;;;;;5058466;28;20041;-60
2021/12/25 13:33:55;;;;;;;12.10;9.00;;;6.00;69.50;;;;;;5064710;28;20225;-63
2021/12/25 13:36:29;;;;;;;11.95;9.10;;;5.90;69.90;;;;;;5068449;28;20036;-60
2021/12/25 13:39:06;;;;;;;12.23;9.27;;;5.70;70.60;;;;;;5065978;28;20354;-63
2021/12/25 13:41:35;;;;;;;12.57;9.40;;;5.80;71.10;;;;;;5064319;28;20040;-73
2021/12/25 13:44:18;;;;;;;11.85;8.82;;;5.70;71.30;;;;;;5069911;28;20024;-64
2021/12/25 13:46:44;;;;;;;12.43;9.70;;;5.60;71.50;;;;;;5063404;28;20017;-61
2021/12/25 13:49:35;;;;;;;13.93;9.57;;;5.60;72.20;;;;;;5063961;28;20136;-64
2021/12/25 13:52:20;;;;;;;15.57;10.30;;;5.70;72.40;;;;;;5061482;28;20037;-65
2021/12/25 13:54:59;;;;;;;13.50;9.40;;;5.70;72.60;;;;;;5079694;28;20029;-62
2021/12/25 13:57:28;;;;;;;13.55;9.45;;;5.60;72.20;;;;;;5064387;28;20028;-72
2021/12/25 13:59:57;;;;;;;10.88;9.00;;;5.70;72.00;;;;;;5070959;28;20028;-64
2021/12/25 14:02:25;;;;;;;12.32;9.23;;;5.60;71.10;;;;;;5066962;28;20085;-65
2021/12/25 14:04:52;;;;;;;12.93;9.25;;;5.40;71.60;;;;;;5067470;28;20104;-66
2021/12/25 14:07:21;;;;;;;11.85;8.80;;;5.30;72.00;;;;;;5057244;28;20052;-68
2021/12/25 14:09:52;;;;;;;13.85;9.88;;;5.20;72.30;;;;;;5064138;28;20476;-66
2021/12/25 14:12:21;;;;;;;12.68;10.20;;;5.30;72.60;;;;;;5071473;28;20123;-63
2021/12/25 14:14:47;;;;;;;14.95;10.10;;;5.40;72.60;;;;;;5063270;28;20515;-60
2021/12/25 14:17:13;;;;;;;13.85;10.40;;;5.30;72.60;;;;;;5076640;28;20483;-66
2021/12/25 14:19:39;;;;;;;13.15;9.88;;;5.40;73.20;;;;;;5059969;28;20358;-62
2021/12/25 14:22:06;;;;;;;12.93;9.68;;;5.40;73.00;;;;;;5067604;28;20028;-63
2021/12/25 14:24:50;;;;;;;14.32;9.75;;;5.50;73.50;;;;;;5066501;28;20500;-65
2021/12/25 14:27:22;;;;;;;24.13;14.63;;;5.50;72.80;;;;;;5058741;28;20039;-61
2021/12/25 14:29:50;;;;;;;13.50;9.43;;;5.30;71.80;;;;;;5074839;28;20315;-61
2021/12/25 14:32:26;;;;;;;12.75;9.02;;;5.40;72.60;;;;;;5060798;28;20528;-61
2021/12/25 14:34:56;;;;;;;28.45;16.25;;;5.30;72.30;;;;;;5059841;28;20524;-61
2021/12/25 14:37:34;;;;;;;12.98;9.30;;;5.20;72.50;;;;;;5065531;28;20159;-61